createdAt,value
2018-07-05T00:05:13.786Z,17.20
2018-07-05T00:16:40.518Z,17.10
2018-07-05T00:22:26.830Z,17.00
2018-07-05T00:28:13.088Z,16.90
2018-07-05T00:33:59.448Z,16.80
2018-07-05T00:39:45.614Z,16.80
2018-07-05T00:45:31.700Z,16.70
2018-07-05T00:51:18.069Z,16.70
2018-07-05T00:57:04.405Z,16.60
2018-07-05T01:02:50.711Z,16.60
2018-07-05T01:08:37.085Z,16.50
2018-07-05T01:14:23.316Z,16.40
2018-07-05T01:20:09.474Z,16.40
2018-07-05T01:25:55.501Z,16.40
2018-07-05T01:31:41.873Z,16.30
2018-07-05T01:37:27.916Z,16.20
2018-07-05T01:43:14.129Z,16.10
2018-07-05T01:49:00.343Z,16.00
2018-07-05T01:54:46.887Z,16.00
2018-07-05T02:00:33.126Z,15.90
2018-07-05T02:06:19.202Z,15.90
2018-07-05T02:12:05.503Z,15.80
2018-07-05T02:17:51.604Z,15.80
2018-07-05T02:23:37.859Z,15.70
2018-07-05T02:29:24.011Z,15.70
2018-07-05T02:35:10.196Z,15.60
2018-07-05T02:40:56.475Z,15.60
2018-07-05T02:46:42.874Z,15.50
2018-07-05T02:52:29.258Z,15.50
2018-07-05T02:58:15.484Z,15.40
2018-07-05T03:04:01.621Z,15.40
2018-07-05T03:09:47.749Z,15.30
2018-07-05T03:15:34.045Z,15.30
2018-07-05T03:21:20.352Z,15.30
2018-07-05T03:27:06.543Z,15.30
2018-07-05T03:32:52.806Z,15.20
2018-07-05T03:38:39.008Z,15.20
2018-07-05T03:44:25.330Z,15.20
2018-07-05T03:50:11.533Z,15.20
2018-07-05T03:55:58.011Z,15.30
2018-07-05T04:01:44.523Z,15.30
2018-07-05T04:07:30.661Z,15.30
2018-07-05T04:13:16.936Z,15.40
2018-07-05T04:19:03.181Z,15.60
2018-07-05T04:24:49.315Z,15.80
2018-07-05T04:30:35.517Z,16.00
2018-07-05T04:36:22.000Z,16.20
2018-07-05T04:42:08.305Z,16.40
2018-07-05T04:47:54.563Z,16.60
2018-07-05T04:53:41.822Z,16.90
2018-07-05T05:05:08.101Z,17.40
2018-07-05T05:10:54.872Z,17.60
2018-07-05T05:16:41.033Z,17.90
2018-07-05T05:22:27.525Z,18.20
2018-07-05T05:33:54.027Z,18.90
2018-07-05T05:39:40.422Z,19.10
2018-07-05T05:45:26.836Z,19.10
2018-07-05T05:51:13.228Z,19.40
2018-07-05T05:56:59.601Z,19.60
2018-07-05T06:02:45.894Z,19.80
2018-07-05T06:08:31.953Z,20.00
2018-07-05T06:14:18.091Z,20.20
2018-07-05T06:20:04.216Z,20.30
2018-07-05T06:25:50.574Z,20.40
2018-07-05T06:31:36.770Z,20.60
2018-07-05T06:37:23.027Z,20.90
2018-07-05T06:43:09.341Z,21.10
2018-07-05T06:48:55.505Z,21.40
2018-07-05T06:54:41.904Z,21.60
2018-07-05T07:00:28.357Z,21.80
2018-07-05T07:11:54.809Z,22.00
2018-07-05T07:17:41.076Z,22.20
2018-07-05T07:23:27.338Z,22.30
2018-07-05T07:29:13.677Z,22.50
2018-07-05T07:34:59.927Z,22.50
2018-07-05T07:40:46.396Z,22.60
2018-07-05T07:46:14.184Z,22.70
2018-07-05T07:51:41.878Z,22.50
2018-07-05T07:57:09.475Z,22.60
2018-07-05T08:02:37.118Z,22.60
2018-07-05T08:08:04.938Z,22.70
2018-07-05T08:13:32.516Z,22.80
2018-07-05T08:19:00.115Z,23.00
2018-07-05T08:24:27.745Z,23.00
2018-07-05T08:35:23.218Z,22.90
2018-07-05T08:40:50.855Z,22.80
2018-07-05T08:46:18.474Z,23.00
2018-07-05T08:51:46.123Z,23.20
2018-07-05T08:57:13.743Z,23.70
2018-07-05T09:02:41.524Z,24.00
2018-07-05T09:08:09.166Z,24.30
2018-07-05T09:13:36.813Z,24.50
2018-07-05T09:19:04.548Z,24.50
2018-07-05T09:24:32.160Z,24.50
2018-07-05T09:29:59.792Z,24.50
2018-07-05T09:35:27.660Z,24.50
2018-07-05T09:40:55.275Z,24.60
2018-07-05T09:46:22.878Z,24.90
2018-07-05T09:51:50.681Z,25.30
2018-07-05T09:57:18.321Z,25.50
2018-07-05T10:02:45.961Z,25.80
2018-07-05T10:08:14.303Z,25.80
2018-07-05T10:13:42.096Z,26.10
2018-07-05T10:19:09.582Z,26.50
2018-07-05T10:24:37.345Z,26.80
2018-07-05T10:30:23.768Z,27.00
2018-07-05T10:35:51.405Z,26.90
2018-07-05T10:47:18.039Z,27.30
2018-07-05T10:53:04.316Z,27.10
2018-07-05T10:58:50.692Z,27.10
2018-07-05T11:04:37.084Z,27.20
2018-07-05T11:10:23.333Z,27.30
2018-07-05T11:16:09.629Z,27.40
2018-07-05T11:21:55.679Z,27.50
2018-07-05T11:27:41.953Z,27.60
2018-07-05T11:33:28.240Z,27.50
2018-07-05T11:39:14.626Z,27.30
2018-07-05T11:45:00.795Z,26.90
2018-07-05T11:50:46.957Z,26.80
2018-07-05T11:56:33.260Z,26.70
2018-07-05T12:02:19.342Z,26.80
2018-07-05T12:08:05.603Z,26.70
2018-07-05T12:13:51.841Z,26.50
2018-07-05T12:19:38.093Z,26.40
2018-07-05T12:25:24.335Z,26.30
2018-07-05T12:31:10.409Z,26.20
2018-07-05T12:36:56.743Z,25.90
2018-07-05T12:42:42.802Z,25.80
2018-07-05T12:48:28.969Z,25.70
2018-07-05T12:54:15.229Z,25.60
2018-07-05T13:00:01.556Z,25.80
2018-07-05T13:05:47.838Z,25.70
2018-07-05T13:11:33.938Z,25.60
2018-07-05T13:17:20.464Z,25.50
2018-07-05T13:23:06.919Z,25.30
2018-07-05T13:28:53.358Z,25.30
2018-07-05T13:34:39.629Z,25.10
2018-07-05T13:46:06.171Z,24.90
2018-07-05T13:51:52.594Z,24.80
2018-07-05T14:03:19.449Z,24.60
2018-07-05T14:09:05.475Z,24.50
2018-07-05T14:14:51.501Z,24.30
2018-07-05T14:20:37.731Z,24.10
2018-07-05T14:26:23.999Z,23.90
2018-07-05T14:32:10.346Z,23.80
2018-07-05T14:37:56.714Z,23.70
2018-07-05T14:43:43.135Z,23.70
2018-07-05T14:49:29.277Z,23.60
2018-07-05T14:55:15.579Z,23.50
2018-07-05T15:01:01.964Z,23.40
2018-07-05T15:06:48.156Z,23.30
2018-07-05T15:12:34.536Z,23.10
2018-07-05T15:18:20.687Z,22.80
2018-07-05T15:24:06.987Z,22.70
2018-07-05T15:29:53.220Z,22.50
2018-07-05T15:35:39.566Z,22.40
2018-07-05T15:41:25.887Z,22.40
2018-07-05T15:47:12.197Z,22.40
2018-07-05T15:52:58.491Z,22.30
2018-07-05T15:58:44.625Z,22.30
2018-07-05T16:04:31.073Z,22.30
2018-07-05T16:10:17.284Z,22.20
2018-07-05T16:16:03.446Z,22.00
2018-07-05T16:21:49.821Z,21.90
2018-07-05T16:27:36.121Z,21.80
2018-07-05T16:33:22.442Z,21.70
2018-07-05T16:39:08.560Z,21.60
2018-07-05T16:44:54.800Z,21.60
2018-07-05T16:50:41.021Z,21.50
2018-07-05T16:56:27.036Z,21.50
2018-07-05T17:02:14.611Z,21.50
2018-07-05T17:08:00.816Z,21.50
2018-07-05T17:13:47.094Z,21.40
2018-07-05T17:19:33.257Z,21.40
2018-07-05T17:25:21.273Z,21.40
2018-07-05T17:31:07.985Z,21.30
2018-07-05T17:36:55.708Z,21.30
2018-07-05T17:42:42.052Z,21.20
2018-07-05T17:48:28.299Z,21.10
2018-07-05T17:54:14.745Z,21.10
2018-07-05T18:00:01.018Z,21.00
2018-07-05T18:05:47.461Z,20.90
2018-07-05T18:11:33.796Z,20.90
2018-07-05T18:17:20.395Z,20.80
2018-07-05T18:28:46.829Z,20.70
2018-07-05T18:34:33.147Z,20.70
2018-07-05T18:40:19.658Z,20.70
2018-07-05T18:46:05.966Z,20.60
2018-07-05T18:51:53.857Z,20.60
2018-07-05T18:57:40.614Z,20.50
2018-07-05T19:03:27.142Z,20.40
2018-07-05T19:09:13.638Z,20.20
2018-07-05T19:14:59.842Z,20.10
2018-07-05T19:20:48.009Z,20.00
2018-07-05T19:26:34.344Z,20.00
2018-07-05T19:32:20.589Z,19.90
2018-07-05T19:38:06.677Z,19.90
2018-07-05T19:43:53.123Z,19.90
2018-07-05T19:49:39.598Z,19.80
2018-07-05T19:55:25.755Z,19.80
2018-07-05T20:01:13.171Z,19.60
2018-07-05T20:06:59.371Z,19.50
2018-07-05T20:12:45.886Z,19.30
2018-07-05T20:18:32.274Z,19.20
2018-07-05T20:24:18.679Z,19.00
2018-07-05T20:30:04.982Z,18.60
2018-07-05T20:35:51.154Z,18.10
2018-07-05T20:41:37.231Z,17.70
2018-07-05T20:47:23.865Z,17.40
2018-07-05T20:53:09.922Z,17.30
2018-07-05T20:58:56.362Z,17.10
2018-07-05T21:04:42.567Z,17.00
2018-07-05T21:10:28.688Z,16.90
2018-07-05T21:16:14.831Z,16.90
2018-07-05T21:22:01.197Z,16.90
2018-07-05T21:27:47.740Z,16.80
2018-07-05T21:33:33.995Z,16.80
2018-07-05T21:39:20.236Z,16.80
2018-07-05T21:45:06.552Z,16.80
2018-07-05T21:50:52.944Z,16.80
2018-07-05T21:56:39.493Z,16.80
2018-07-05T22:02:25.740Z,16.90
2018-07-05T22:08:11.972Z,16.90
2018-07-05T22:13:58.329Z,16.90
2018-07-05T22:19:49.859Z,16.90
2018-07-05T22:31:27.334Z,16.80
2018-07-05T22:37:13.555Z,16.80
2018-07-05T22:42:59.761Z,16.70
2018-07-05T22:48:46.004Z,16.70
2018-07-05T22:54:32.354Z,16.70
2018-07-05T23:05:58.739Z,16.70
2018-07-05T23:11:45.399Z,16.70
2018-07-05T23:17:31.554Z,16.60
2018-07-05T23:23:17.786Z,16.60
2018-07-05T23:29:03.918Z,16.50
2018-07-05T23:34:49.933Z,16.50
2018-07-05T23:40:36.305Z,16.60
2018-07-05T23:46:22.661Z,16.50
2018-07-05T23:52:08.877Z,16.50
2018-07-05T23:57:55.324Z,16.50
